Time;durP1;ratioP1;P1;durP2;ratioP2;P2;SDS_P1;SDS_P2;PMS_P1;PMS_P2;Temp;Humidity;BMP_temperature;BMP_pressure;BME280_temperature;BME280_humidity;BME280_pressure;Samples;Min_cycle;Max_cycle;Signal;HPM_P1;HPM_P2
2022/04/12 00:00:43;;;;;;;21.65;8.45;;;;;;;;;;4876808;29;20056;-67
2022/04/12 00:03:13;;;;;;;;;;;;;;;;;;4877292;29;20533;-70
2022/04/12 00:06:07;;;;;;;20.38;7.35;;;;;;;;;;4865715;29;19969;-67
2022/04/12 00:08:38;;;;;;;20.08;7.15;;;;;;;;;;4872165;29;20064;-65
2022/04/12 00:11:09;;;;;;;20.35;7.90;;;;;;;;;;4858173;29;20061;-65
2022/04/12 00:13:42;;;;;;;15.07;6.53;;;;;;;;;;4839553;29;20062;-66
2022/04/12 00:16:12;;;;;;;22.88;7.78;;;;;;;;;;4839941;29;20061;-64
2022/04/12 00:19:03;;;;;;;18.02;7.47;;;;;;;;;;4839218;29;20058;-66
2022/04/12 00:21:36;;;;;;;19.42;6.88;;;;;;;;;;4784814;29;20399;-66
2022/04/12 00:24:07;;;;;;;;;;;;;;;;;;4783304;29;20188;-65
2022/04/12 00:27:00;;;;;;;19.40;7.35;;;;;;;;;;4798713;29;20096;-66
2022/04/12 00:30:12;;;;;;;17.38;6.97;;;;;;;;;;4803127;29;20050;-64
2022/04/12 00:32:43;;;;;;;19.63;7.47;;;;;;;;;;4803079;29;20055;-65
2022/04/12 00:35:37;;;;;;;21.30;7.70;;;;;;;;;;4820891;29;20062;-65
2022/04/12 00:38:18;;;;;;;20.42;8.13;;;;;;;;;;4864969;29;20060;-65
2022/04/12 00:40:49;;;;;;;21.75;7.28;;;;;;;;;;4876228;29;20065;-66
2022/04/12 00:43:20;;;;;;;19.88;6.93;;;;;;;;;;4860855;29;20054;-65
2022/04/12 00:45:51;;;;;;;19.10;7.45;;;;;;;;;;4822822;29;20088;-63
2022/04/12 00:48:43;;;;;;;19.63;8.13;;;;;;;;;;4857593;29;20053;-64
2022/04/12 00:51:33;;;;;;;20.45;8.02;;;;;;;;;;4846993;29;20454;-63
2022/04/12 00:54:05;;;;;;;22.00;8.00;;;;;;;;;;4839130;29;20065;-64
2022/04/12 00:56:58;;;;;;;22.08;8.60;;;;;;;;;;4871032;29;20057;-64
2022/04/12 00:59:28;;;;;;;;;;;;;;;;;;4865396;29;20061;-64
2022/04/12 01:02:01;;;;;;;22.25;8.82;;;;;;;;;;4857358;29;19924;-65
2022/04/12 01:04:36;;;;;;;24.30;8.48;;;;;;;;;;4905781;29;20059;-64
2022/04/12 01:07:08;;;;;;;22.80;8.45;;;;;;;;;;4893914;29;20060;-64
2022/04/12 01:09:59;;;;;;;17.65;7.70;;;;;;;;;;4894805;29;20068;-64
2022/04/12 01:12:38;;;;;;;22.67;8.15;;;;;;;;;;4914527;29;20058;-64
2022/04/12 01:15:21;;;;;;;20.83;7.53;;;;;;;;;;4914787;29;20488;-64
2022/04/12 01:17:53;;;;;;;17.10;7.20;;;;;;;;;;4909556;29;20052;-64
2022/04/12 01:20:24;;;;;;;;;;;;;;;;;;4908013;29;20410;-64
2022/04/12 01:23:19;;;;;;;16.42;6.97;;;;;;;;;;4909701;29;20391;-64
2022/04/12 01:25:50;;;;;;;56.90;23.73;;;;;;;;;;4883840;29;20132;-64
2022/04/12 01:28:23;;;;;;;87.68;34.85;;;;;;;;;;4878537;29;20053;-65
2022/04/12 01:31:16;;;;;;;25.40;9.85;;;;;;;;;;4913013;29;20504;-64
2022/04/12 01:33:46;;;;;;;20.63;8.90;;;;;;;;;;4900953;29;20079;-64
2022/04/12 01:36:20;;;;;;;20.85;9.25;;;;;;;;;;4916232;29;20452;-64
2022/04/12 01:38:52;;;;;;;65.35;28.52;;;;;;;;;;4932151;29;20056;-64
2022/04/12 01:41:23;;;;;;;23.85;11.52;;;;;;;;;;4884545;29;20058;-64
2022/04/12 01:43:54;;;;;;;26.10;12.63;;;;;;;;;;4899974;29;20067;-65
2022/04/12 01:46:44;;;;;;;21.58;10.30;;;;;;;;;;4913063;29;20052;-64
2022/04/12 01:49:17;;;;;;;21.75;9.85;;;;;;;;;;4898795;29;20052;-64
2022/04/12 01:51:50;;;;;;;21.77;10.20;;;;;;;;;;4893711;29;20067;-65
2022/04/12 01:54:41;;;;;;;29.65;12.20;;;;;;;;;;4893535;29;20053;-63
2022/04/12 01:57:12;;;;;;;19.65;9.13;;;;;;;;;;4872608;29;20102;-63
2022/04/12 01:59:42;;;;;;;17.27;9.43;;;;;;;;;;4856544;29;20188;-63
2022/04/12 02:02:13;;;;;;;19.17;9.50;;;;;;;;;;4856285;29;20473;-63
2022/04/12 02:04:44;;;;;;;20.42;9.57;;;;;;;;;;4873677;29;20053;-63
2022/04/12 02:07:15;;;;;;;22.13;9.63;;;;;;;;;;4841356;29;20474;-64
2022/04/12 02:09:49;;;;;;;23.40;10.05;;;;;;;;;;4918350;29;20180;-63
2022/04/12 02:12:20;;;;;;;26.20;10.52;;;;;;;;;;4912883;29;20060;-63
2022/04/12 02:15:13;;;;;;;19.73;9.60;;;;;;;;;;4912576;29;20048;-64
2022/04/12 02:18:04;;;;;;;23.77;11.80;;;;;;;;;;4874553;29;20536;-65
2022/04/12 02:20:35;;;;;;;28.58;12.68;;;;;;;;;;4875046;29;20053;-66
2022/04/12 02:23:06;;;;;;;24.02;11.80;;;;;;;;;;4912200;29;20052;-66
2022/04/12 02:25:37;;;;;;;23.58;10.93;;;;;;;;;;4893886;29;20067;-65
2022/04/12 02:28:28;;;;;;;21.38;9.48;;;;;;;;;;4891351;29;20057;-67
2022/04/12 02:30:59;;;;;;;15.20;7.30;;;;;;;;;;4876498;29;20064;-64
2022/04/12 02:33:32;;;;;;;15.25;7.45;;;;;;;;;;4893316;29;20064;-64
2022/04/12 02:36:03;;;;;;;12.23;6.28;;;;;;;;;;4910298;29;20437;-64
2022/04/12 02:38:36;;;;;;;12.95;6.63;;;;;;;;;;4912119;29;20083;-62
2022/04/12 02:41:09;;;;;;;14.57;6.63;;;;;;;;;;4904954;29;20079;-63
2022/04/12 02:43:40;;;;;;;12.93;5.50;;;;;;;;;;4912519;29;20060;-65
2022/04/12 02:46:14;;;;;;;11.65;6.22;;;;;;;;;;4897203;29;20660;-62
2022/04/12 02:48:44;;;;;;;13.57;5.18;;;;;;;;;;4931337;29;20056;-62
2022/04/12 02:51:17;;;;;;;10.85;4.53;;;;;;;;;;4931478;29;20067;-65
2022/04/12 02:53:48;;;;;;;6.35;3.17;;;;;;;;;;4914246;29;20056;-64
2022/04/12 02:56:18;;;;;;;3.97;2.00;;;;;;;;;;4926491;29;20560;-62
2022/04/12 02:58:48;;;;;;;4.28;2.20;;;;;;;;;;4950650;29;20059;-63
2022/04/12 03:01:20;;;;;;;6.22;2.60;;;;;;;;;;4950274;28;20065;-63
2022/04/12 03:03:53;;;;;;;2.58;1.42;;;;;;;;;;4973130;28;20095;-62
2022/04/12 03:06:25;;;;;;;3.28;1.63;;;;;;;;;;4998358;28;20053;-62
2022/04/12 03:08:55;;;;;;;4.18;2.00;;;;;;;;;;5012588;28;20057;-62
2022/04/12 03:11:27;;;;;;;4.05;2.00;;;;;;;;;;4937530;28;20050;-62
2022/04/12 03:13:58;;;;;;;3.63;1.80;;;;;;;;;;4999758;28;20566;-63
2022/04/12 03:16:28;;;;;;;4.50;1.70;;;;;;;;;;5004589;28;20058;-62
2022/04/12 03:18:59;;;;;;;2.78;1.38;;;;;;;;;;4956421;28;20047;-62
2022/04/12 03:21:30;;;;;;;2.38;1.30;;;;;;;;;;4925287;28;20066;-61
2022/04/12 03:24:03;;;;;;;3.40;1.52;;;;;;;;;;4970837;28;20541;-61
2022/04/12 03:26:34;;;;;;;2.72;1.38;;;;;;;;;;4925043;28;20507;-63
2022/04/12 03:29:05;;;;;;;3.30;1.02;;;;;;;;;;4940322;28;20054;-63
2022/04/12 03:31:36;;;;;;;2.15;0.70;;;;;;;;;;4973272;28;20059;-62
2022/04/12 03:34:06;;;;;;;1.95;0.57;;;;;;;;;;4972893;28;20058;-63
2022/04/12 03:36:38;;;;;;;0.98;0.60;;;;;;;;;;4924805;28;20055;-62
2022/04/12 03:39:19;;;;;;;1.42;0.70;;;;;;;;;;4972661;28;20065;-63
2022/04/12 03:41:51;;;;;;;1.00;0.40;;;;;;;;;;4955024;28;20548;-65
2022/04/12 03:44:22;;;;;;;5.50;0.90;;;;;;;;;;4972515;28;20055;-64
2022/04/12 03:46:53;;;;;;;2.83;0.60;;;;;;;;;;4915071;29;20078;-64
2022/04/12 03:49:24;;;;;;;2.58;0.70;;;;;;;;;;4952494;28;20065;-64
2022/04/12 03:51:54;;;;;;;0.82;0.50;;;;;;;;;;4984773;28;20418;-64
2022/04/12 03:54:26;;;;;;;1.70;0.40;;;;;;;;;;4992135;28;20050;-63
2022/04/12 03:56:57;;;;;;;2.38;0.80;;;;;;;;;;5017848;28;20057;-63
2022/04/12 03:59:28;;;;;;;0.80;0.40;;;;;;;;;;5012796;28;20053;-63
2022/04/12 04:01:59;;;;;;;0.88;0.38;;;;;;;;;;5031444;28;20097;-62
2022/04/12 04:04:30;;;;;;;2.00;0.40;;;;;;;;;;5029046;28;20061;-62
2022/04/12 04:07:05;;;;;;;1.90;0.80;;;;;;;;;;5015721;28;20121;-62
2022/04/12 04:09:36;;;;;;;1.02;0.50;;;;;;;;;;5031210;28;20056;-62
2022/04/12 04:12:08;;;;;;;1.17;0.40;;;;;;;;;;5030666;28;20057;-63
2022/04/12 04:14:42;;;;;;;2.03;0.60;;;;;;;;;;5030353;28;20053;-62
2022/04/12 04:17:13;;;;;;;0.70;0.43;;;;;;;;;;5030870;28;20065;-63
2022/04/12 04:19:44;;;;;;;0.77;0.40;;;;;;;;;;4991151;28;20504;-63
2022/04/12 04:22:14;;;;;;;1.00;0.30;;;;;;;;;;4991461;28;20498;-63
2022/04/12 04:24:45;;;;;;;1.13;0.30;;;;;;;;;;4986450;28;20054;-63
2022/04/12 04:27:16;;;;;;;0.80;0.40;;;;;;;;;;4995078;28;20050;-63
2022/04/12 04:29:47;;;;;;;2.42;0.40;;;;;;;;;;4994818;28;20083;-63
2022/04/12 04:32:18;;;;;;;1.55;0.63;;;;;;;;;;5010834;28;20529;-63
2022/04/12 04:34:49;;;;;;;2.97;0.47;;;;;;;;;;4994863;28;20429;-64
2022/04/12 04:37:19;;;;;;;1.30;0.70;;;;;;;;;;4995135;28;20061;-63
2022/04/12 04:39:50;;;;;;;0.90;0.40;;;;;;;;;;4961874;28;20390;-63
2022/04/12 04:42:23;;;;;;;0.82;0.43;;;;;;;;;;4978165;28;20742;-64
2022/04/12 04:44:53;;;;;;;1.23;0.40;;;;;;;;;;5010618;28;20057;-63
2022/04/12 04:47:24;;;;;;;1.00;0.22;;;;;;;;;;4994663;28;20069;-63
2022/04/12 04:49:54;;;;;;;1.02;0.40;;;;;;;;;;5010599;28;20050;-64
2022/04/12 04:52:25;;;;;;;0.65;0.30;;;;;;;;;;4994117;28;20185;-63
2022/04/12 04:54:55;;;;;;;0.70;0.43;;;;;;;;;;5010522;28;20061;-63
2022/04/12 04:57:26;;;;;;;0.88;0.28;;;;;;;;;;5018525;28;20060;-63
2022/04/12 04:59:57;;;;;;;0.98;0.30;;;;;;;;;;5049724;28;20045;-62
2022/04/12 05:02:28;;;;;;;0.50;0.35;;;;;;;;;;5050101;28;20572;-62
2022/04/12 05:04:58;;;;;;;0.40;0.20;;;;;;;;;;5049814;28;20079;-64
2022/04/12 05:07:29;;;;;;;0.90;0.40;;;;;;;;;;5050306;28;20048;-65
2022/04/12 05:10:00;;;;;;;1.88;0.50;;;;;;;;;;5029638;28;20053;-63
2022/04/12 05:12:30;;;;;;;0.73;0.30;;;;;;;;;;5029876;28;20065;-63
2022/04/12 05:15:00;;;;;;;1.08;0.30;;;;;;;;;;5029869;28;20434;-62
2022/04/12 05:17:31;;;;;;;0.38;0.30;;;;;;;;;;4993157;28;20065;-62
2022/04/12 05:20:05;;;;;;;0.30;0.20;;;;;;;;;;5009774;28;20093;-62
2022/04/12 05:22:36;;;;;;;2.20;0.30;;;;;;;;;;4990128;28;20050;-63
2022/04/12 05:25:07;;;;;;;0.98;0.35;;;;;;;;;;4990038;28;20058;-63
2022/04/12 05:27:38;;;;;;;1.23;0.68;;;;;;;;;;4942081;28;20042;-63
2022/04/12 05:30:13;;;;;;;1.38;0.55;;;;;;;;;;4990125;28;20058;-63
2022/04/12 05:32:44;;;;;;;1.55;0.60;;;;;;;;;;4974454;28;20061;-64
2022/04/12 05:35:15;;;;;;;0.90;0.50;;;;;;;;;;4989932;28;20069;-64
2022/04/12 05:37:50;;;;;;;3.15;0.50;;;;;;;;;;4970498;28;20058;-65
2022/04/12 05:40:23;;;;;;;0.50;0.30;;;;;;;;;;4950867;28;20051;-64
2022/04/12 05:42:53;;;;;;;1.40;0.50;;;;;;;;;;4916005;29;20052;-64
2022/04/12 05:45:26;;;;;;;2.15;0.60;;;;;;;;;;4912526;29;20078;-64
2022/04/12 05:47:57;;;;;;;1.67;0.85;;;;;;;;;;4874860;29;20056;-65
2022/04/12 05:50:29;;;;;;;0.45;0.30;;;;;;;;;;4912936;29;20408;-64
2022/04/12 05:52:59;;;;;;;1.45;0.25;;;;;;;;;;4913063;29;20059;-64
2022/04/12 05:55:30;;;;;;;0.30;0.20;;;;;;;;;;4881575;29;20436;-64
2022/04/12 05:58:05;;;;;;;0.17;0.10;;;;;;;;;;4913339;29;20066;-65
2022/04/12 06:00:36;;;;;;;0.20;0.20;;;;;;;;;;4909274;29;20067;-65
2022/04/12 06:03:07;;;;;;;2.20;0.10;;;;;;;;;;4932058;29;20060;-65
2022/04/12 06:05:38;;;;;;;0.50;0.10;;;;;;;;;;4931357;29;20063;-64
2022/04/12 06:08:09;;;;;;;0.20;0.20;;;;;;;;;;4932051;29;20059;-65
2022/04/12 06:10:40;;;;;;;2.55;0.10;;;;;;;;;;4962919;28;20630;-64
2022/04/12 06:13:10;;;;;;;0.60;0.10;;;;;;;;;;4970267;28;20102;-65
2022/04/12 06:15:41;;;;;;;1.40;0.17;;;;;;;;;;4982487;28;20204;-64
2022/04/12 06:18:12;;;;;;;0.10;0.10;;;;;;;;;;5012323;28;20057;-63
2022/04/12 06:20:43;;;;;;;0.00;0.00;;;;;;;;;;5024091;28;20075;-64
2022/04/12 06:23:14;;;;;;;0.30;0.30;;;;;;;;;;5048916;28;20052;-63
2022/04/12 06:25:45;;;;;;;0.10;0.05;;;;;;;;;;5015597;28;20056;-66
2022/04/12 06:28:16;;;;;;;0.10;0.10;;;;;;;;;;5009308;28;20401;-63
2022/04/12 06:30:48;;;;;;;10.25;3.60;;;;;;;;;;4999389;28;20515;-64
2022/04/12 06:33:19;;;;;;;29.23;10.52;;;;;;;;;;5015690;28;20532;-64
2022/04/12 06:35:50;;;;;;;39.28;16.33;;;;;;;;;;5048998;28;20049;-64
2022/04/12 06:38:21;;;;;;;12.07;4.38;;;;;;;;;;5052708;28;20052;-63
2022/04/12 06:40:52;;;;;;;10.50;4.25;;;;;;;;;;5052625;28;20068;-64
2022/04/12 06:43:22;;;;;;;5.03;1.40;;;;;;;;;;5036485;28;20559;-64
2022/04/12 06:45:53;;;;;;;8.25;3.20;;;;;;;;;;5052012;28;20512;-65
2022/04/12 06:48:24;;;;;;;1.75;0.95;;;;;;;;;;5012431;28;20045;-64
2022/04/12 06:50:55;;;;;;;1.80;0.95;;;;;;;;;;4996946;28;20508;-63
2022/04/12 06:53:25;;;;;;;0.10;0.10;;;;;;;;;;5012655;28;20064;-64
2022/04/12 06:55:55;;;;;;;0.43;0.17;;;;;;;;;;5012579;28;20054;-64
2022/04/12 06:58:26;;;;;;;1.58;0.35;;;;;;;;;;4980293;28;20515;-63
2022/04/12 07:00:57;;;;;;;2.90;1.75;;;;;;;;;;5012344;28;20049;-64
2022/04/12 07:03:27;;;;;;;1.65;1.00;;;;;;;;;;5012383;28;20402;-64
2022/04/12 07:05:58;;;;;;;0.82;0.65;;;;;;;;;;5014113;28;20058;-64
2022/04/12 07:08:29;;;;;;;4.43;1.50;;;;;;;;;;5012134;28;20050;-63
2022/04/12 07:11:01;;;;;;;1.50;0.68;;;;;;;;;;5012224;28;20057;-63
2022/04/12 07:13:31;;;;;;;2.50;0.22;;;;;;;;;;5012220;28;20069;-64
2022/04/12 07:16:02;;;;;;;2.38;0.20;;;;;;;;;;5012246;28;20050;-64
2022/04/12 07:18:33;;;;;;;2.33;0.20;;;;;;;;;;5012017;28;20486;-65
2022/04/12 07:21:04;;;;;;;0.75;0.20;;;;;;;;;;5012083;28;20061;-63
2022/04/12 07:23:36;;;;;;;1.10;0.28;;;;;;;;;;5012219;28;20060;-63
2022/04/12 07:26:06;;;;;;;0.30;0.20;;;;;;;;;;5011913;28;20054;-63
2022/04/12 07:28:37;;;;;;;0.68;0.10;;;;;;;;;;4995912;28;20417;-63
2022/04/12 07:31:08;;;;;;;2.15;0.38;;;;;;;;;;5011821;28;20054;-63
2022/04/12 07:33:39;;;;;;;1.90;0.20;;;;;;;;;;5012104;28;20057;-64
2022/04/12 07:36:10;;;;;;;2.95;0.22;;;;;;;;;;4978879;28;20085;-64
2022/04/12 07:38:42;;;;;;;0.52;0.40;;;;;;;;;;4980325;28;20066;-63
2022/04/12 07:41:13;;;;;;;0.40;0.30;;;;;;;;;;5011776;28;20049;-64
2022/04/12 07:43:47;;;;;;;0.20;0.20;;;;;;;;;;5033251;28;20068;-64
2022/04/12 07:46:18;;;;;;;0.20;0.10;;;;;;;;;;5074214;28;20067;-64
2022/04/12 07:48:50;;;;;;;0.50;0.20;;;;;;;;;;5091663;28;20052;-63
2022/04/12 07:51:21;;;;;;;0.32;0.10;;;;;;;;;;5091391;28;20048;-64
2022/04/12 07:53:52;;;;;;;0.52;0.20;;;;;;;;;;5091363;28;20055;-64
2022/04/12 07:56:23;;;;;;;0.25;0.10;;;;;;;;;;5074919;28;20416;-64
2022/04/12 07:58:53;;;;;;;0.43;0.22;;;;;;;;;;5091372;28;20420;-64
2022/04/12 08:01:24;;;;;;;2.67;0.20;;;;;;;;;;5070720;28;20052;-64
2022/04/12 08:03:55;;;;;;;0.38;0.20;;;;;;;;;;5071012;28;20052;-64
2022/04/12 08:06:26;;;;;;;2.00;0.38;;;;;;;;;;5070658;28;20044;-64
2022/04/12 08:08:56;;;;;;;3.55;0.40;;;;;;;;;;5054737;28;20451;-64
2022/04/12 08:11:27;;;;;;;2.60;1.50;;;;;;;;;;5070691;28;20059;-64
2022/04/12 08:13:58;;;;;;;2.38;0.30;;;;;;;;;;5043383;28;20060;-64
2022/04/12 08:16:29;;;;;;;0.73;0.30;;;;;;;;;;5017418;28;20059;-65
2022/04/12 08:18:59;;;;;;;1.20;0.28;;;;;;;;;;5050568;28;20079;-64
2022/04/12 08:21:35;;;;;;;2.83;0.40;;;;;;;;;;5017469;28;20067;-65
2022/04/12 08:24:08;;;;;;;1.02;0.30;;;;;;;;;;5050800;28;20068;-64
2022/04/12 08:26:39;;;;;;;1.25;0.60;;;;;;;;;;4994551;28;20053;-64
2022/04/12 08:29:10;;;;;;;0.80;0.30;;;;;;;;;;5010579;28;20454;-64
2022/04/12 08:31:41;;;;;;;2.60;0.50;;;;;;;;;;4974912;28;20053;-64
2022/04/12 08:34:12;;;;;;;2.08;0.40;;;;;;;;;;4990975;28;20432;-64
2022/04/12 08:36:42;;;;;;;0.80;0.40;;;;;;;;;;4990986;28;20069;-64
2022/04/12 08:39:16;;;;;;;2.47;0.52;;;;;;;;;;4991285;28;20399;-65
2022/04/12 08:41:48;;;;;;;1.13;0.43;;;;;;;;;;4952013;28;20054;-64
2022/04/12 08:44:19;;;;;;;1.23;0.52;;;;;;;;;;4916778;29;20526;-64
2022/04/12 08:46:50;;;;;;;1.05;0.65;;;;;;;;;;4901292;29;20066;-65
2022/04/12 08:49:23;;;;;;;1.23;0.70;;;;;;;;;;4932861;29;20100;-64
2022/04/12 08:51:54;;;;;;;1.80;0.90;;;;;;;;;;4901238;29;20063;-66
2022/04/12 08:54:25;;;;;;;16.75;6.45;;;;;;;;;;4933241;29;20059;-65
2022/04/12 08:56:57;;;;;;;22.95;10.82;;;;;;;;;;4932383;29;20500;-65
2022/04/12 08:59:28;;;;;;;12.32;6.20;;;;;;;;;;4932556;29;20064;-64
2022/04/12 09:02:00;;;;;;;9.13;3.90;;;;;;;;;;4932729;29;20063;-65
2022/04/12 09:04:33;;;;;;;6.70;1.90;;;;;;;;;;4943969;28;20763;-65
2022/04/12 09:07:09;;;;;;;2.20;1.10;;;;;;;;;;4951746;28;20052;-65
2022/04/12 09:09:42;;;;;;;6.75;1.10;;;;;;;;;;4976529;28;20054;-65
2022/04/12 09:12:17;;;;;;;4.13;0.90;;;;;;;;;;5003322;28;20060;-65
2022/04/12 09:14:54;;;;;;;2.33;0.80;;;;;;;;;;5010045;28;20054;-65
2022/04/12 09:17:39;;;;;;;1.63;0.70;;;;;;;;;;4990118;28;20069;-64
2022/04/12 09:20:19;;;;;;;4.43;0.93;;;;;;;;;;4974521;28;20518;-66
2022/04/12 09:22:52;;;;;;;4.60;0.77;;;;;;;;;;4987890;28;20058;-65
2022/04/12 09:25:23;;;;;;;9.88;1.00;;;;;;;;;;4990367;28;20050;-64
2022/04/12 09:27:55;;;;;;;4.47;0.77;;;;;;;;;;4990361;28;20046;-65
2022/04/12 09:30:27;;;;;;;2.92;0.68;;;;;;;;;;4990116;28;20054;-64
2022/04/12 09:32:58;;;;;;;3.85;0.82;;;;;;;;;;4957807;28;20058;-64
2022/04/12 09:35:30;;;;;;;2.22;0.80;;;;;;;;;;5042030;28;20057;-65
2022/04/12 09:38:01;;;;;;;2.42;0.63;;;;;;;;;;5032754;28;20146;-65
2022/04/12 09:40:32;;;;;;;2.10;0.80;;;;;;;;;;5009474;28;20060;-64
2022/04/12 09:43:05;;;;;;;9.30;2.15;;;;;;;;;;5009576;28;20050;-64
2022/04/12 09:45:36;;;;;;;3.10;0.85;;;;;;;;;;4993642;28;20430;-64
2022/04/12 09:48:08;;;;;;;4.15;1.10;;;;;;;;;;5009601;28;20054;-64
2022/04/12 09:51:02;;;;;;;6.15;1.20;;;;;;;;;;5009215;28;20088;-64
2022/04/12 09:53:40;;;;;;;23.30;13.45;;;;;;;;;;4977568;28;20077;-64
2022/04/12 09:56:16;;;;;;;9.48;5.07;;;;;;;;;;5009374;28;20068;-64
2022/04/12 09:58:51;;;;;;;7.82;3.92;;;;;;;;;;5009410;28;20050;-65
2022/04/12 10:01:25;;;;;;;7.10;4.07;;;;;;;;;;5009366;28;20046;-64
2022/04/12 10:03:58;;;;;;;7.25;2.38;;;;;;;;;;5009320;28;20042;-64
2022/04/12 10:06:30;;;;;;;6.47;2.53;;;;;;;;;;5009184;28;20046;-64
2022/04/12 10:09:04;;;;;;;4.30;2.28;;;;;;;;;;4993094;28;20046;-64
2022/04/12 10:11:37;;;;;;;6.30;2.40;;;;;;;;;;4994276;28;20064;-64
2022/04/12 10:14:16;;;;;;;10.25;3.72;;;;;;;;;;4993643;28;20552;-64
2022/04/12 10:16:47;;;;;;;18.65;4.97;;;;;;;;;;4993911;28;20063;-64
2022/04/12 10:19:18;;;;;;;15.95;5.35;;;;;;;;;;4998614;28;20049;-64
2022/04/12 10:21:49;;;;;;;21.33;4.90;;;;;;;;;;5033223;28;20492;-64
2022/04/12 10:24:21;;;;;;;16.38;4.40;;;;;;;;;;5033057;28;20072;-65
2022/04/12 10:26:52;;;;;;;18.90;4.22;;;;;;;;;;5032994;28;20046;-64
2022/04/12 10:29:23;;;;;;;12.35;5.00;;;;;;;;;;5035948;28;20052;-65
2022/04/12 10:31:56;;;;;;;20.08;5.57;;;;;;;;;;5016944;28;20049;-65
2022/04/12 10:35:00;;;;;;;14.93;4.78;;;;;;;;;;5016183;28;20049;-65
2022/04/12 10:37:32;;;;;;;13.02;4.75;;;;;;;;;;4993286;28;20062;-64
2022/04/12 10:40:25;;;;;;;9.20;3.78;;;;;;;;;;4992834;28;20065;-65
2022/04/12 10:43:03;;;;;;;11.77;3.67;;;;;;;;;;4977983;28;20059;-64
2022/04/12 10:45:34;;;;;;;12.57;3.95;;;;;;;;;;4993142;28;20058;-65
2022/04/12 10:48:05;;;;;;;10.15;3.47;;;;;;;;;;4992920;28;20434;-64
2022/04/12 10:50:42;;;;;;;9.75;3.50;;;;;;;;;;4945081;28;20047;-64
2022/04/12 10:53:13;;;;;;;13.30;3.47;;;;;;;;;;4992827;28;20062;-65
2022/04/12 10:55:44;;;;;;;11.30;3.60;;;;;;;;;;4993218;28;20054;-64
2022/04/12 10:58:30;;;;;;;10.98;3.67;;;;;;;;;;4944752;28;20207;-65
2022/04/12 11:01:01;;;;;;;14.73;3.92;;;;;;;;;;4993083;28;20054;-64
2022/04/12 11:03:41;;;;;;;11.18;3.42;;;;;;;;;;4992576;28;20066;-65
2022/04/12 11:06:15;;;;;;;9.35;3.20;;;;;;;;;;4992746;28;20549;-65
2022/04/12 11:08:49;;;;;;;10.48;3.30;;;;;;;;;;4992342;28;20077;-64
2022/04/12 11:11:21;;;;;;;10.98;3.47;;;;;;;;;;4973195;28;20050;-65
2022/04/12 11:13:52;;;;;;;9.13;3.30;;;;;;;;;;4973192;28;20415;-65
2022/04/12 11:16:27;;;;;;;8.65;2.97;;;;;;;;;;4972769;28;20514;-65
2022/04/12 11:19:02;;;;;;;7.80;2.65;;;;;;;;;;4990187;28;20490;-65
2022/04/12 11:21:57;;;;;;;6.65;2.90;;;;;;;;;;4992353;28;20069;-65
2022/04/12 11:24:27;;;;;;;5.32;2.33;;;;;;;;;;4976689;28;20054;-65
2022/04/12 11:27:09;;;;;;;9.70;4.07;;;;;;;;;;4944274;28;20050;-64
2022/04/12 11:29:42;;;;;;;13.05;6.35;;;;;;;;;;4944276;28;20062;-64
2022/04/12 11:32:12;;;;;;;17.27;10.15;;;;;;;;;;4992411;28;20106;-65
2022/04/12 11:34:43;;;;;;;12.15;6.72;;;;;;;;;;4944067;28;20058;-64
2022/04/12 11:37:14;;;;;;;11.27;6.15;;;;;;;;;;4959783;28;20081;-65
2022/04/12 11:39:45;;;;;;;13.75;7.93;;;;;;;;;;4975869;28;20058;-64
2022/04/12 11:42:17;;;;;;;10.65;4.70;;;;;;;;;;5029211;28;20056;-65
2022/04/12 11:44:53;;;;;;;12.18;5.38;;;;;;;;;;4982993;28;20060;-64
2022/04/12 11:47:33;;;;;;;9.50;5.53;;;;;;;;;;5040084;28;20424;-64
2022/04/12 11:50:13;;;;;;;10.38;6.32;;;;;;;;;;5092444;28;20056;-64
2022/04/12 11:52:47;;;;;;;9.15;5.28;;;;;;;;;;5041647;28;20059;-64
2022/04/12 11:55:18;;;;;;;10.63;5.22;;;;;;;;;;5093848;28;20047;-64
2022/04/12 11:57:50;;;;;;;10.48;5.78;;;;;;;;;;5093726;28;20488;-64
2022/04/12 12:00:24;;;;;;;11.50;5.97;;;;;;;;;;5058233;28;20048;-65
2022/04/12 12:02:55;;;;;;;6.63;3.92;;;;;;;;;;5058037;28;20052;-64
2022/04/12 12:05:27;;;;;;;5.60;2.83;;;;;;;;;;5057838;28;20044;-64
2022/04/12 12:08:00;;;;;;;5.72;3.13;;;;;;;;;;5041759;28;20048;-64
2022/04/12 12:10:31;;;;;;;5.25;2.88;;;;;;;;;;5093283;28;20036;-64
2022/04/12 12:13:06;;;;;;;5.22;2.67;;;;;;;;;;5093324;28;20044;-64
2022/04/12 12:15:38;;;;;;;5.30;2.92;;;;;;;;;;5058425;28;20483;-66
2022/04/12 12:18:09;;;;;;;5.40;2.80;;;;;;;;;;5014550;28;20068;-63
2022/04/12 12:20:40;;;;;;;7.43;3.00;;;;;;;;;;5010690;28;20054;-63
2022/04/12 12:23:11;;;;;;;6.07;2.45;;;;;;;;;;4994588;28;20469;-63
2022/04/12 12:25:50;;;;;;;5.22;2.97;;;;;;;;;;5010939;28;20057;-63
2022/04/12 12:28:26;;;;;;;6.93;3.67;;;;;;;;;;5010971;28;20093;-63
2022/04/12 12:31:05;;;;;;;4.57;2.40;;;;;;;;;;4994438;28;20054;-64
2022/04/12 12:33:45;;;;;;;4.97;2.55;;;;;;;;;;4995094;28;20045;-66
2022/04/12 12:36:23;;;;;;;4.65;2.53;;;;;;;;;;5010410;28;20042;-63
2022/04/12 12:38:54;;;;;;;6.85;2.25;;;;;;;;;;4994842;28;20064;-63
2022/04/12 12:41:32;;;;;;;4.20;2.20;;;;;;;;;;5010496;28;20506;-63
2022/04/12 12:44:03;;;;;;;4.72;2.40;;;;;;;;;;5010893;28;20520;-63
2022/04/12 12:46:35;;;;;;;7.75;3.03;;;;;;;;;;4978110;28;20069;-63
2022/04/12 12:49:11;;;;;;;7.45;2.75;;;;;;;;;;5010511;28;20050;-63
2022/04/12 12:51:42;;;;;;;26.75;13.63;;;;;;;;;;5010533;28;20061;-63
2022/04/12 12:54:17;;;;;;;7.45;3.95;;;;;;;;;;4994111;28;20493;-65
2022/04/12 12:56:48;;;;;;;6.63;3.72;;;;;;;;;;5009965;28;20562;-64
2022/04/12 12:59:33;;;;;;;7.35;2.92;;;;;;;;;;4961895;28;20054;-64
2022/04/12 13:02:14;;;;;;;6.57;2.75;;;;;;;;;;4990644;28;20066;-63
2022/04/12 13:04:54;;;;;;;5.13;2.90;;;;;;;;;;4990469;28;20055;-63
2022/04/12 13:07:32;;;;;;;5.10;2.28;;;;;;;;;;4990552;28;20055;-63
2022/04/12 13:10:21;;;;;;;4.63;2.47;;;;;;;;;;4990301;28;20497;-64
2022/04/12 13:12:52;;;;;;;5.38;2.53;;;;;;;;;;4976069;28;20057;-62
2022/04/12 13:15:23;;;;;;;6.43;3.08;;;;;;;;;;5009989;28;20065;-63
2022/04/12 13:17:54;;;;;;;4.13;2.55;;;;;;;;;;4989986;28;20065;-63
2022/04/12 13:20:25;;;;;;;10.82;3.72;;;;;;;;;;4990142;28;20403;-63
2022/04/12 13:22:55;;;;;;;5.88;3.40;;;;;;;;;;4958038;28;20065;-64
2022/04/12 13:25:26;;;;;;;6.30;3.28;;;;;;;;;;5009256;28;20061;-64
2022/04/12 13:28:00;;;;;;;2.60;1.20;;;;;;;;;;4989486;28;20043;-63
2022/04/12 13:30:30;;;;;;;2.40;1.05;;;;;;;;;;4989819;28;20069;-64
2022/04/12 13:33:01;;;;;;;3.47;1.08;;;;;;;;;;5008730;28;20174;-63
2022/04/12 13:35:51;;;;;;;1.33;0.80;;;;;;;;;;5009600;28;20057;-63
2022/04/12 13:38:22;;;;;;;1.42;0.88;;;;;;;;;;4976855;28;20054;-63
2022/04/12 13:40:53;;;;;;;4.45;0.68;;;;;;;;;;4989523;28;20065;-64
2022/04/12 13:43:24;;;;;;;3.25;0.90;;;;;;;;;;4989660;28;20503;-63
2022/04/12 13:45:55;;;;;;;1.15;0.50;;;;;;;;;;4989802;28;20062;-64
2022/04/12 13:48:27;;;;;;;2.28;0.52;;;;;;;;;;4989770;28;20057;-64
2022/04/12 13:50:58;;;;;;;2.13;0.70;;;;;;;;;;4989418;28;20050;-64
2022/04/12 13:53:28;;;;;;;1.85;0.68;;;;;;;;;;4989444;28;20058;-64
2022/04/12 13:56:00;;;;;;;2.55;0.77;;;;;;;;;;4915211;29;20060;-64
2022/04/12 13:58:31;;;;;;;2.20;0.70;;;;;;;;;;4950564;28;20066;-63
2022/04/12 14:01:01;;;;;;;2.40;0.88;;;;;;;;;;4934918;29;20066;-63
2022/04/12 14:03:33;;;;;;;1.25;0.63;;;;;;;;;;4963839;28;20050;-64
2022/04/12 14:06:04;;;;;;;1.80;0.60;;;;;;;;;;4989296;28;20061;-66
2022/04/12 14:08:36;;;;;;;5.25;2.22;;;;;;;;;;4989007;28;20426;-63
2022/04/12 14:11:07;;;;;;;2.53;1.20;;;;;;;;;;4989382;28;20050;-63
2022/04/12 14:13:41;;;;;;;1.60;0.50;;;;;;;;;;4989413;28;20058;-63
2022/04/12 14:16:15;;;;;;;0.98;0.43;;;;;;;;;;4989564;28;20062;-64
2022/04/12 14:18:47;;;;;;;4.22;1.90;;;;;;;;;;4994621;28;20049;-63
2022/04/12 14:21:18;;;;;;;15.73;7.85;;;;;;;;;;5009158;28;20062;-64
2022/04/12 14:23:48;;;;;;;6.32;3.50;;;;;;;;;;4977249;28;20116;-64
2022/04/12 14:26:39;;;;;;;7.18;2.97;;;;;;;;;;4989418;28;20058;-64
2022/04/12 14:29:16;;;;;;;5.93;2.70;;;;;;;;;;5019543;28;20061;-64
2022/04/12 14:31:47;;;;;;;3.30;1.50;;;;;;;;;;5028856;28;20050;-64
2022/04/12 14:34:18;;;;;;;3.15;1.33;;;;;;;;;;5008587;28;20054;-64
2022/04/12 14:36:49;;;;;;;3.38;1.30;;;;;;;;;;4992921;28;20062;-64
2022/04/12 14:39:25;;;;;;;4.13;1.50;;;;;;;;;;5008889;28;20058;-64
2022/04/12 14:41:57;;;;;;;2.03;1.10;;;;;;;;;;4978174;28;20050;-65
2022/04/12 14:44:28;;;;;;;2.95;1.00;;;;;;;;;;4993015;28;20057;-64
2022/04/12 14:47:02;;;;;;;1.90;1.00;;;;;;;;;;4960604;28;20149;-68
2022/04/12 14:49:33;;;;;;;4.38;2.25;;;;;;;;;;5004563;28;20054;-64
2022/04/12 14:52:05;;;;;;;4.45;1.83;;;;;;;;;;4972984;28;20605;-65
2022/04/12 14:54:36;;;;;;;5.90;2.45;;;;;;;;;;4950452;29;20047;-64
2022/04/12 14:57:07;;;;;;;7.03;3.30;;;;;;;;;;4951279;28;20055;-64
2022/04/12 14:59:38;;;;;;;5.60;2.70;;;;;;;;;;4969879;28;20169;-64
2022/04/12 15:02:09;;;;;;;3.55;1.77;;;;;;;;;;4954148;29;20066;-66
2022/04/12 15:04:40;;;;;;;3.90;1.83;;;;;;;;;;4979496;28;20066;-64
2022/04/12 15:07:12;;;;;;;3.35;1.67;;;;;;;;;;4973140;28;20070;-64
2022/04/12 15:09:45;;;;;;;3.95;1.85;;;;;;;;;;4973158;28;20055;-64
2022/04/12 15:12:17;;;;;;;4.28;2.20;;;;;;;;;;4997938;28;20058;-65
2022/04/12 15:14:47;;;;;;;3.85;1.95;;;;;;;;;;4992404;28;20046;-65
2022/04/12 15:17:18;;;;;;;3.58;1.50;;;;;;;;;;4960145;28;20054;-65